sensor_id;sensor_type;location;lat;lon;timestamp;pressure;altitude;pressure_sealevel;temperature;humidity
80542;BME280;69870;51.460;8.842;2024-01-10T00:01:00;99934.06;;;-9.12;70.73
80542;BME280;69870;51.460;8.842;2024-01-10T00:03:28;99929.38;;;-9.16;70.97
80542;BME280;69870;51.460;8.842;2024-01-10T00:05:55;99929.72;;;-9.19;70.74
80542;BME280;69870;51.460;8.842;2024-01-10T00:08:22;99931.94;;;-9.23;70.60
80542;BME280;69870;51.460;8.842;2024-01-10T00:10:49;99931.47;;;-9.26;71.03
80542;BME280;69870;51.460;8.842;2024-01-10T00:13:15;99916.69;;;-9.27;71.42
80542;BME280;69870;51.460;8.842;2024-01-10T00:15:42;99915.88;;;-9.28;71.62
80542;BME280;69870;51.460;8.842;2024-01-10T00:18:08;99922.16;;;-9.29;71.52
80542;BME280;69870;51.460;8.842;2024-01-10T00:20:35;99906.53;;;-9.30;70.96
80542;BME280;69870;51.460;8.842;2024-01-10T00:23:03;99909.38;;;-9.32;70.87
80542;BME280;69870;51.460;8.842;2024-01-10T00:25:30;99906.09;;;-9.34;71.41
80542;BME280;69870;51.460;8.842;2024-01-10T00:27:56;99906.28;;;-9.35;71.40
80542;BME280;69870;51.460;8.842;2024-01-10T00:30:25;99911.72;;;-9.37;71.67
80542;BME280;69870;51.460;8.842;2024-01-10T00:32:51;99903.22;;;-9.39;71.53
80542;BME280;69870;51.460;8.842;2024-01-10T00:35:18;99905.00;;;-9.39;71.75
80542;BME280;69870;51.460;8.842;2024-01-10T00:37:45;99904.59;;;-9.43;71.32
80542;BME280;69870;51.460;8.842;2024-01-10T00:40:13;99896.69;;;-9.43;71.71
80542;BME280;69870;51.460;8.842;2024-01-10T00:42:40;99894.25;;;-9.44;71.26
80542;BME280;69870;51.460;8.842;2024-01-10T00:45:07;99892.97;;;-9.48;71.29
80542;BME280;69870;51.460;8.842;2024-01-10T00:47:33;99890.72;;;-9.51;71.16
80542;BME280;69870;51.460;8.842;2024-01-10T00:50:00;99897.81;;;-9.52;71.62
80542;BME280;69870;51.460;8.842;2024-01-10T00:52:27;99899.81;;;-9.54;71.59
80542;BME280;69870;51.460;8.842;2024-01-10T00:54:53;99891.28;;;-9.56;71.37
80542;BME280;69870;51.460;8.842;2024-01-10T00:57:21;99883.56;;;-9.57;71.17
80542;BME280;69870;51.460;8.842;2024-01-10T00:59:48;99885.56;;;-9.59;71.70
80542;BME280;69870;51.460;8.842;2024-01-10T01:02:14;99880.69;;;-9.62;71.46
80542;BME280;69870;51.460;8.842;2024-01-10T01:04:41;99878.22;;;-9.64;71.71
80542;BME280;69870;51.460;8.842;2024-01-10T01:07:07;99880.22;;;-9.66;71.54
80542;BME280;69870;51.460;8.842;2024-01-10T01:09:34;99885.88;;;-9.69;71.97
80542;BME280;69870;51.460;8.842;2024-01-10T01:12:01;99882.44;;;-9.69;71.92
80542;BME280;69870;51.460;8.842;2024-01-10T01:14:29;99892.50;;;-9.73;71.52
80542;BME280;69870;51.460;8.842;2024-01-10T01:16:55;99893.88;;;-9.77;71.42
80542;BME280;69870;51.460;8.842;2024-01-10T01:19:22;99889.97;;;-9.81;71.90
80542;BME280;69870;51.460;8.842;2024-01-10T01:21:48;99883.28;;;-9.84;72.27
80542;BME280;69870;51.460;8.842;2024-01-10T01:24:15;99886.09;;;-9.85;72.38
80542;BME280;69870;51.460;8.842;2024-01-10T01:26:42;99889.72;;;-9.86;71.96
80542;BME280;69870;51.460;8.842;2024-01-10T01:29:09;99890.09;;;-9.89;71.51
80542;BME280;69870;51.460;8.842;2024-01-10T01:31:37;99879.75;;;-9.91;71.69
80542;BME280;69870;51.460;8.842;2024-01-10T01:34:03;99887.00;;;-9.93;72.33
80542;BME280;69870;51.460;8.842;2024-01-10T01:36:30;99885.38;;;-9.94;71.66
80542;BME280;69870;51.460;8.842;2024-01-10T01:38:56;99883.13;;;-9.97;71.75
80542;BME280;69870;51.460;8.842;2024-01-10T01:41:23;99888.56;;;-9.98;72.46
80542;BME280;69870;51.460;8.842;2024-01-10T01:43:50;99891.34;;;-10.00;72.26
80542;BME280;69870;51.460;8.842;2024-01-10T01:46:16;99891.75;;;-10.03;71.75
80542;BME280;69870;51.460;8.842;2024-01-10T01:48:44;99885.03;;;-10.05;72.01
80542;BME280;69870;51.460;8.842;2024-01-10T01:51:12;99893.13;;;-10.07;72.01
80542;BME280;69870;51.460;8.842;2024-01-10T01:53:42;99883.78;;;-10.09;71.86
80542;BME280;69870;51.460;8.842;2024-01-10T01:56:11;99881.53;;;-10.12;72.19
80542;BME280;69870;51.460;8.842;2024-01-10T01:58:39;99885.19;;;-10.13;71.95
80542;BME280;69870;51.460;8.842;2024-01-10T02:01:06;99876.47;;;-10.14;72.25
80542;BME280;69870;51.460;8.842;2024-01-10T02:03:33;99871.75;;;-10.18;72.33
80542;BME280;69870;51.460;8.842;2024-01-10T02:06:01;99879.84;;;-10.20;72.00
80542;BME280;69870;51.460;8.842;2024-01-10T02:08:29;99874.94;;;-10.23;72.28
80542;BME280;69870;51.460;8.842;2024-01-10T02:10:56;99864.59;;;-10.24;72.02
80542;BME280;69870;51.460;8.842;2024-01-10T02:13:23;99873.03;;;-10.29;71.86
80542;BME280;69870;51.460;8.842;2024-01-10T02:15:49;99864.53;;;-10.31;72.45
80542;BME280;69870;51.460;8.842;2024-01-10T02:18:16;99861.06;;;-10.31;72.30
80542;BME280;69870;51.460;8.842;2024-01-10T02:20:43;99858.78;;;-10.34;72.13
80542;BME280;69870;51.460;8.842;2024-01-10T02:23:11;99852.72;;;-10.35;71.99
80542;BME280;69870;51.460;8.842;2024-01-10T02:25:40;99849.31;;;-10.35;72.19
80542;BME280;69870;51.460;8.842;2024-01-10T02:28:07;99841.56;;;-10.37;71.94
80542;BME280;69870;51.460;8.842;2024-01-10T02:30:34;99841.28;;;-10.42;72.28
80542;BME280;69870;51.460;8.842;2024-01-10T02:33:01;99840.84;;;-10.45;72.56
80542;BME280;69870;51.460;8.842;2024-01-10T02:35:27;99834.00;;;-10.46;72.31
80542;BME280;69870;51.460;8.842;2024-01-10T02:37:55;99826.28;;;-10.48;72.04
80542;BME280;69870;51.460;8.842;2024-01-10T02:40:21;99830.06;;;-10.51;72.99
80542;BME280;69870;51.460;8.842;2024-01-10T02:42:49;99820.75;;;-10.53;72.26
80542;BME280;69870;51.460;8.842;2024-01-10T02:45:17;99824.56;;;-10.56;72.18
80542;BME280;69870;51.460;8.842;2024-01-10T02:47:44;99824.56;;;-10.56;72.42
80542;BME280;69870;51.460;8.842;2024-01-10T02:50:11;99822.94;;;-10.57;72.16
80542;BME280;69870;51.460;8.842;2024-01-10T02:52:38;99816.06;;;-10.58;72.68
80542;BME280;69870;51.460;8.842;2024-01-10T02:55:05;99814.13;;;-10.64;72.02
80542;BME280;69870;51.460;8.842;2024-01-10T02:57:31;99815.31;;;-10.66;72.54
80542;BME280;69870;51.460;8.842;2024-01-10T02:59:59;99822.41;;;-10.67;72.54
80542;BME280;69870;51.460;8.842;2024-01-10T03:02:26;99822.75;;;-10.70;72.63
80542;BME280;69870;51.460;8.842;2024-01-10T03:04:53;99811.59;;;-10.72;72.51
80542;BME280;69870;51.460;8.842;2024-01-10T03:07:19;99812.59;;;-10.73;72.26
80542;BME280;69870;51.460;8.842;2024-01-10T03:09:46;99824.09;;;-10.74;72.42
80542;BME280;69870;51.460;8.842;2024-01-10T03:12:12;99819.84;;;-10.75;72.52
80542;BME280;69870;51.460;8.842;2024-01-10T03:14:39;99825.09;;;-10.75;72.61
80542;BME280;69870;51.460;8.842;2024-01-10T03:17:07;99827.09;;;-10.77;72.25
80542;BME280;69870;51.460;8.842;2024-01-10T03:19:33;99828.44;;;-10.81;72.69
80542;BME280;69870;51.460;8.842;2024-01-10T03:22:02;99827.81;;;-10.83;72.23
80542;BME280;69870;51.460;8.842;2024-01-10T03:24:29;99820.28;;;-10.86;72.41
80542;BME280;69870;51.460;8.842;2024-01-10T03:26:55;99824.91;;;-10.88;72.54
80542;BME280;69870;51.460;8.842;2024-01-10T03:29:22;99828.53;;;-10.89;72.38
80542;BME280;69870;51.460;8.842;2024-01-10T03:31:49;99829.16;;;-10.87;72.38
80542;BME280;69870;51.460;8.842;2024-01-10T03:34:16;99821.28;;;-10.87;72.28
80542;BME280;69870;51.460;8.842;2024-01-10T03:36:43;99820.47;;;-10.87;72.55
80542;BME280;69870;51.460;8.842;2024-01-10T03:39:10;99828.53;;;-10.89;72.85
80542;BME280;69870;51.460;8.842;2024-01-10T03:41:36;99826.88;;;-10.90;72.24
80542;BME280;69870;51.460;8.842;2024-01-10T03:44:04;99820.81;;;-10.90;72.46
80542;BME280;69870;51.460;8.842;2024-01-10T03:46:30;99820.00;;;-10.91;72.33
80542;BME280;69870;51.460;8.842;2024-01-10T03:48:57;99825.25;;;-10.91;72.24
80542;BME280;69870;51.460;8.842;2024-01-10T03:51:25;99826.88;;;-10.90;72.56
80542;BME280;69870;51.460;8.842;2024-01-10T03:53:51;99819.19;;;-10.91;72.64
80542;BME280;69870;51.460;8.842;2024-01-10T03:56:20;99817.56;;;-10.92;72.76
80542;BME280;69870;51.460;8.842;2024-01-10T03:58:47;99822.00;;;-10.93;72.38
80542;BME280;69870;51.460;8.842;2024-01-10T04:01:14;99820.38;;;-10.94;72.43
80542;BME280;69870;51.460;8.842;2024-01-10T04:03:41;99821.19;;;-10.93;72.09
80542;BME280;69870;51.460;8.842;2024-01-10T04:06:08;99822.19;;;-10.94;72.40
80542;BME280;69870;51.460;8.842;2024-01-10T04:08:35;99819.56;;;-10.94;72.21
80542;BME280;69870;51.460;8.842;2024-01-10T04:11:03;99820.72;;;-10.97;72.54
80542;BME280;69870;51.460;8.842;2024-01-10T04:13:29;99815.66;;;-10.98;72.69
80542;BME280;69870;51.460;8.842;2024-01-10T04:15:56;99814.84;;;-10.99;72.55
80542;BME280;69870;51.460;8.842;2024-01-10T04:18:22;99815.66;;;-10.98;72.53
80542;BME280;69870;51.460;8.842;2024-01-10T04:20:49;99822.06;;;-11.01;72.46
80542;BME280;69870;51.460;8.842;2024-01-10T04:23:16;99809.94;;;-11.02;72.19
80542;BME280;69870;51.460;8.842;2024-01-10T04:25:44;99806.69;;;-11.04;72.40
80542;BME280;69870;51.460;8.842;2024-01-10T04:28:10;99805.06;;;-11.05;72.73
80542;BME280;69870;51.460;8.842;2024-01-10T04:30:37;99809.31;;;-11.04;72.61
80542;BME280;69870;51.460;8.842;2024-01-10T04:33:04;99806.88;;;-11.05;72.54
80542;BME280;69870;51.460;8.842;2024-01-10T04:35:31;99806.41;;;-11.09;72.56
80542;BME280;69870;51.460;8.842;2024-01-10T04:37:57;99805.41;;;-11.08;73.00
80542;BME280;69870;51.460;8.842;2024-01-10T04:40:24;99799.97;;;-11.06;72.54
80542;BME280;69870;51.460;8.842;2024-01-10T04:42:52;99802.44;;;-11.05;72.23
80542;BME280;69870;51.460;8.842;2024-01-10T04:45:18;99805.69;;;-11.03;72.94
80542;BME280;69870;51.460;8.842;2024-01-10T04:47:45;99802.88;;;-11.01;72.78
80542;BME280;69870;51.460;8.842;2024-01-10T04:50:12;99798.44;;;-11.01;72.38
80542;BME280;69870;51.460;8.842;2024-01-10T04:52:38;99802.06;;;-11.02;72.87
80542;BME280;69870;51.460;8.842;2024-01-10T04:55:06;99801.28;;;-11.02;72.39
80542;BME280;69870;51.460;8.842;2024-01-10T04:57:33;99801.28;;;-11.02;72.43
80542;BME280;69870;51.460;8.842;2024-01-10T05:00:01;99803.88;;;-11.02;72.53
80542;BME280;69870;51.460;8.842;2024-01-10T05:02:28;99798.09;;;-10.98;72.88
80542;BME280;69870;51.460;8.842;2024-01-10T05:04:54;99792.47;;;-10.95;72.53
80542;BME280;69870;51.460;8.842;2024-01-10T05:07:21;99795.75;;;-10.93;73.11
80542;BME280;69870;51.460;8.842;2024-01-10T05:09:48;99794.13;;;-10.94;72.62
80542;BME280;69870;51.460;8.842;2024-01-10T05:12:14;99786.44;;;-10.95;73.02
80542;BME280;69870;51.460;8.842;2024-01-10T05:14:41;99790.88;;;-10.96;72.56
80542;BME280;69870;51.460;8.842;2024-01-10T05:17:09;99784.97;;;-10.98;72.82
80542;BME280;69870;51.460;8.842;2024-01-10T05:19:35;99782.34;;;-10.98;72.68
80542;BME280;69870;51.460;8.842;2024-01-10T05:22:02;99784.97;;;-10.98;72.49
80542;BME280;69870;51.460;8.842;2024-01-10T05:24:29;99793.84;;;-10.99;73.13
80542;BME280;69870;51.460;8.842;2024-01-10T05:26:56;99785.97;;;-10.99;72.51
80542;BME280;69870;51.460;8.842;2024-01-10T05:29:22;99781.53;;;-10.98;72.53
80542;BME280;69870;51.460;8.842;2024-01-10T05:31:49;99781.53;;;-10.98;72.61
80542;BME280;69870;51.460;8.842;2024-01-10T05:34:18;99782.34;;;-10.98;73.01
80542;BME280;69870;51.460;8.842;2024-01-10T05:36:44;99787.75;;;-10.99;72.55
80542;BME280;69870;51.460;8.842;2024-01-10T05:39:11;99779.09;;;-11.00;72.54
80542;BME280;69870;51.460;8.842;2024-01-10T05:41:41;99785.78;;;-10.97;72.48
80542;BME280;69870;51.460;8.842;2024-01-10T05:44:09;99785.97;;;-10.99;73.07
80542;BME280;69870;51.460;8.842;2024-01-10T05:46:35;99788.59;;;-10.99;72.47
80542;BME280;69870;51.460;8.842;2024-01-10T05:49:02;99792.84;;;-10.98;73.01
80542;BME280;69870;51.460;8.842;2024-01-10T05:51:31;99787.41;;;-10.96;72.32
80542;BME280;69870;51.460;8.842;2024-01-10T05:53:57;99787.22;;;-10.95;72.32
80542;BME280;69870;51.460;8.842;2024-01-10T05:56:24;99776.72;;;-10.95;72.67
80542;BME280;69870;51.460;8.842;2024-01-10T05:58:52;99787.22;;;-10.95;72.58
80542;BME280;69870;51.460;8.842;2024-01-10T06:01:19;99781.00;;;-10.94;72.63
80542;BME280;69870;51.460;8.842;2024-01-10T06:03:45;99783.63;;;-10.94;72.53
80542;BME280;69870;51.460;8.842;2024-01-10T06:06:12;99779.63;;;-10.90;72.36
80542;BME280;69870;51.460;8.842;2024-01-10T06:08:40;99768.31;;;-10.90;72.90
80542;BME280;69870;51.460;8.842;2024-01-10T06:11:06;99774.38;;;-10.90;72.89
80542;BME280;69870;51.460;8.842;2024-01-10T06:13:34;99772.38;;;-10.88;73.04
80542;BME280;69870;51.460;8.842;2024-01-10T06:16:02;99765.34;;;-10.87;72.92
80542;BME280;69870;51.460;8.842;2024-01-10T06:18:28;99775.03;;;-10.88;72.99
80542;BME280;69870;51.460;8.842;2024-01-10T06:20:55;99775.22;;;-10.89;73.06
80542;BME280;69870;51.460;8.842;2024-01-10T06:23:22;99771.41;;;-10.87;72.64
80542;BME280;69870;51.460;8.842;2024-01-10T06:25:50;99771.41;;;-10.87;72.57
80542;BME280;69870;51.460;8.842;2024-01-10T06:28:18;99772.03;;;-10.85;73.05
80542;BME280;69870;51.460;8.842;2024-01-10T06:30:45;99782.16;;;-10.82;72.88
80542;BME280;69870;51.460;8.842;2024-01-10T06:33:11;99786.25;;;-10.79;73.16
80542;BME280;69870;51.460;8.842;2024-01-10T06:35:39;99789.69;;;-10.79;72.71
80542;BME280;69870;51.460;8.842;2024-01-10T06:38:06;99793.28;;;-10.80;72.65
80542;BME280;69870;51.460;8.842;2024-01-10T06:40:33;99787.88;;;-10.78;72.91
80542;BME280;69870;51.460;8.842;2024-01-10T06:43:01;99794.75;;;-10.77;73.24
80542;BME280;69870;51.460;8.842;2024-01-10T06:45:27;99787.69;;;-10.77;73.11
80542;BME280;69870;51.460;8.842;2024-01-10T06:47:55;99788.31;;;-10.75;72.87
80542;BME280;69870;51.460;8.842;2024-01-10T06:50:21;99794.03;;;-10.71;72.60
80542;BME280;69870;51.460;8.842;2024-01-10T06:52:49;99796.47;;;-10.70;73.23
80542;BME280;69870;51.460;8.842;2024-01-10T06:55:15;99792.22;;;-10.71;72.78
80542;BME280;69870;51.460;8.842;2024-01-10T06:57:43;99793.03;;;-10.70;72.57
80542;BME280;69870;51.460;8.842;2024-01-10T07:00:14;99793.84;;;-10.70;73.28
80542;BME280;69870;51.460;8.842;2024-01-10T07:02:43;99802.56;;;-10.69;73.08
80542;BME280;69870;51.460;8.842;2024-01-10T07:05:09;99797.47;;;-10.71;72.54
80542;BME280;69870;51.460;8.842;2024-01-10T07:07:36;99807.00;;;-10.70;73.38
80542;BME280;69870;51.460;8.842;2024-01-10T07:10:03;99807.00;;;-10.70;72.70
80542;BME280;69870;51.460;8.842;2024-01-10T07:12:30;99816.22;;;-10.44;73.95
80542;BME280;69870;51.460;8.842;2024-01-10T07:14:56;99810.56;;;-10.12;73.15
80542;BME280;69870;51.460;8.842;2024-01-10T07:17:25;99807.47;;;-9.80;73.54
80542;BME280;69870;51.460;8.842;2024-01-10T07:19:51;99810.88;;;-9.80;73.30
80542;BME280;69870;51.460;8.842;2024-01-10T07:22:18;99816.00;;;-9.93;72.61
80542;BME280;69870;51.460;8.842;2024-01-10T07:24:44;99818.69;;;-10.07;72.81
80542;BME280;69870;51.460;8.842;2024-01-10T07:27:12;99815.38;;;-10.16;73.60
80542;BME280;69870;51.460;8.842;2024-01-10T07:29:40;99814.28;;;-10.21;73.33
80542;BME280;69870;51.460;8.842;2024-01-10T07:32:06;99816.28;;;-10.23;74.03
80542;BME280;69870;51.460;8.842;2024-01-10T07:34:37;99812.59;;;-10.29;73.41
80542;BME280;69870;51.460;8.842;2024-01-10T07:37:04;99814.75;;;-10.32;73.75
80542;BME280;69870;51.460;8.842;2024-01-10T07:39:31;99824.00;;;-10.36;73.83
80542;BME280;69870;51.460;8.842;2024-01-10T07:41:57;99811.84;;;-10.37;73.97
80542;BME280;69870;51.460;8.842;2024-01-10T07:44:27;99826.97;;;-10.39;73.43
80542;BME280;69870;51.460;8.842;2024-01-10T07:46:54;99821.72;;;-10.39;73.70
80542;BME280;69870;51.460;8.842;2024-01-10T07:49:20;99828.63;;;-10.38;73.83
80542;BME280;69870;51.460;8.842;2024-01-10T07:51:50;99825.00;;;-10.37;73.72
80542;BME280;69870;51.460;8.842;2024-01-10T07:54:17;99832.88;;;-10.37;73.94
80542;BME280;69870;51.460;8.842;2024-01-10T07:56:43;99826.81;;;-10.38;73.71
80542;BME280;69870;51.460;8.842;2024-01-10T07:59:10;99823.66;;;-10.33;73.40
80542;BME280;69870;51.460;8.842;2024-01-10T08:01:40;99818.00;;;-10.30;73.30
80542;BME280;69870;51.460;8.842;2024-01-10T08:04:06;99825.72;;;-10.29;73.00
80542;BME280;69870;51.460;8.842;2024-01-10T08:06:33;99815.84;;;-10.27;73.56
80542;BME280;69870;51.460;8.842;2024-01-10T08:09:01;99819.72;;;-10.23;72.83
80542;BME280;69870;51.460;8.842;2024-01-10T08:11:29;99818.56;;;-10.20;73.19
80542;BME280;69870;51.460;8.842;2024-01-10T08:13:56;99818.00;;;-10.16;73.40
80542;BME280;69870;51.460;8.842;2024-01-10T08:16:23;99819.84;;;-10.10;73.34
80542;BME280;69870;51.460;8.842;2024-01-10T08:18:50;99815.66;;;-10.04;72.68
80542;BME280;69870;51.460;8.842;2024-01-10T08:21:16;99811.06;;;-10.02;73.02
80542;BME280;69870;51.460;8.842;2024-01-10T08:23:43;99808.66;;;-9.97;72.70
80542;BME280;69870;51.460;8.842;2024-01-10T08:26:11;99808.13;;;-9.93;72.53
80542;BME280;69870;51.460;8.842;2024-01-10T08:28:37;99806.09;;;-9.91;72.53
80542;BME280;69870;51.460;8.842;2024-01-10T08:31:04;99809.00;;;-9.86;72.76
80542;BME280;69870;51.460;8.842;2024-01-10T08:33:31;99804.84;;;-9.80;72.54
80542;BME280;69870;51.460;8.842;2024-01-10T08:35:57;99796.94;;;-9.80;72.77
80542;BME280;69870;51.460;8.842;2024-01-10T08:38:24;99804.06;;;-9.74;72.51
80542;BME280;69870;51.460;8.842;2024-01-10T08:40:51;99802.31;;;-9.67;72.44
80542;BME280;69870;51.460;8.842;2024-01-10T08:43:19;99799.94;;;-9.62;72.43
80542;BME280;69870;51.460;8.842;2024-01-10T08:45:46;99799.81;;;-9.54;72.77
80542;BME280;69870;51.460;8.842;2024-01-10T08:48:12;99802.72;;;-9.49;72.94
80542;BME280;69870;51.460;8.842;2024-01-10T08:50:39;99810.47;;;-9.41;72.32
80542;BME280;69870;51.460;8.842;2024-01-10T08:53:06;99804.41;;;-8.58;72.18
80542;BME280;69870;51.460;8.842;2024-01-10T08:55:33;99796.41;;;-7.57;69.74
80542;BME280;69870;51.460;8.842;2024-01-10T08:58:02;99804.78;;;-7.01;66.94
80542;BME280;69870;51.460;8.842;2024-01-10T09:00:30;99800.06;;;-6.53;66.21
80542;BME280;69870;51.460;8.842;2024-01-10T09:02:57;99801.41;;;-5.49;64.38
80542;BME280;69870;51.460;8.842;2024-01-10T09:05:23;99794.31;;;-4.38;61.69
80542;BME280;69870;51.460;8.842;2024-01-10T09:07:50;99784.31;;;-3.29;59.24
80542;BME280;69870;51.460;8.842;2024-01-10T09:10:18;99780.09;;;-2.49;57.36
80542;BME280;69870;51.460;8.842;2024-01-10T09:12:46;99784.88;;;-1.72;56.33
80542;BME280;69870;51.460;8.842;2024-01-10T09:15:13;99780.16;;;-0.92;54.11
80542;BME280;69870;51.460;8.842;2024-01-10T09:17:42;99778.47;;;-0.43;54.09
80542;BME280;69870;51.460;8.842;2024-01-10T09:20:09;99786.16;;;-0.08;53.27
80542;BME280;69870;51.460;8.842;2024-01-10T09:22:36;99774.88;;;0.12;53.51
80542;BME280;69870;51.460;8.842;2024-01-10T09:25:03;99768.81;;;0.43;52.49
80542;BME280;69870;51.460;8.842;2024-01-10T09:27:31;99775.78;;;-0.05;54.17
80542;BME280;69870;51.460;8.842;2024-01-10T09:29:58;99779.00;;;-1.12;56.10
80542;BME280;69870;51.460;8.842;2024-01-10T09:32:26;99783.72;;;-2.15;58.97
80542;BME280;69870;51.460;8.842;2024-01-10T09:34:54;99791.97;;;-2.29;60.42
80542;BME280;69870;51.460;8.842;2024-01-10T09:37:20;99784.19;;;-1.22;58.25
80542;BME280;69870;51.460;8.842;2024-01-10T09:39:48;99777.72;;;0.00;55.12
80542;BME280;69870;51.460;8.842;2024-01-10T09:42:14;99774.69;;;0.18;55.26
80542;BME280;69870;51.460;8.842;2024-01-10T09:44:41;99781.53;;;-0.34;55.51
80542;BME280;69870;51.460;8.842;2024-01-10T09:47:08;99784.34;;;-1.29;57.94
80542;BME280;69870;51.460;8.842;2024-01-10T09:49:35;99783.84;;;-2.22;59.75
80542;BME280;69870;51.460;8.842;2024-01-10T09:52:04;99783.44;;;-2.88;61.74
80542;BME280;69870;51.460;8.842;2024-01-10T09:54:31;99786.25;;;-3.36;62.86
80542;BME280;69870;51.460;8.842;2024-01-10T09:56:58;99782.22;;;-3.68;63.99
80542;BME280;69870;51.460;8.842;2024-01-10T09:59:24;99781.88;;;-3.90;64.48
80542;BME280;69870;51.460;8.842;2024-01-10T10:01:52;99780.66;;;-4.06;65.31
80542;BME280;69870;51.460;8.842;2024-01-10T10:04:19;99772.19;;;-4.14;65.21
80542;BME280;69870;51.460;8.842;2024-01-10T10:06:46;99771.44;;;-4.21;65.44
80542;BME280;69870;51.460;8.842;2024-01-10T10:09:15;99774.41;;;-4.29;65.53
80542;BME280;69870;51.460;8.842;2024-01-10T10:11:42;99775.44;;;-4.30;65.95
80542;BME280;69870;51.460;8.842;2024-01-10T10:14:15;99763.81;;;-4.29;66.08
80542;BME280;69870;51.460;8.842;2024-01-10T10:16:42;99767.47;;;-4.30;65.84
80542;BME280;69870;51.460;8.842;2024-01-10T10:19:09;99761.72;;;-4.27;65.81
80542;BME280;69870;51.460;8.842;2024-01-10T10:21:37;99761.25;;;-4.24;65.62
80542;BME280;69870;51.460;8.842;2024-01-10T10:24:04;99756.34;;;-4.21;65.83
80542;BME280;69870;51.460;8.842;2024-01-10T10:26:34;99764.66;;;-4.17;65.31
80542;BME280;69870;51.460;8.842;2024-01-10T10:29:01;99757.91;;;-4.13;65.41
80542;BME280;69870;51.460;8.842;2024-01-10T10:31:28;99761.50;;;-4.08;65.57
80542;BME280;69870;51.460;8.842;2024-01-10T10:33:59;99757.94;;;-4.02;65.11
80542;BME280;69870;51.460;8.842;2024-01-10T10:36:26;99761.69;;;-3.91;65.51
80542;BME280;69870;51.460;8.842;2024-01-10T10:38:52;99756.66;;;-3.28;64.31
80542;BME280;69870;51.460;8.842;2024-01-10T10:41:19;99749.28;;;-2.34;62.16
80542;BME280;69870;51.460;8.842;2024-01-10T10:43:48;99743.53;;;-2.14;61.27
80542;BME280;69870;51.460;8.842;2024-01-10T10:46:16;99749.31;;;-1.32;59.04
80542;BME280;69870;51.460;8.842;2024-01-10T10:48:43;99742.56;;;-0.68;57.37
80542;BME280;69870;51.460;8.842;2024-01-10T10:51:11;99743.47;;;-0.63;57.04
80542;BME280;69870;51.460;8.842;2024-01-10T10:53:39;99747.63;;;-0.89;57.16
80542;BME280;69870;51.460;8.842;2024-01-10T10:56:06;99752.16;;;-1.22;58.17
80542;BME280;69870;51.460;8.842;2024-01-10T10:58:35;99750.41;;;-1.62;58.99
80542;BME280;69870;51.460;8.842;2024-01-10T11:01:05;99750.59;;;-1.80;60.99
80542;BME280;69870;51.460;8.842;2024-01-10T11:03:34;99750.59;;;-1.80;60.99
80542;BME280;69870;51.460;8.842;2024-01-10T11:06:02;99750.59;;;-1.80;60.99
80542;BME280;69870;51.460;8.842;2024-01-10T11:08:33;99750.59;;;-1.80;60.99
80542;BME280;69870;51.460;8.842;2024-01-10T11:11:02;73611.13;;;-141.13;100.00
80542;BME280;69870;51.460;8.842;2024-01-10T11:13:41;69286.63;;;-142.42;100.00
80542;BME280;69870;51.460;8.842;2024-01-10T11:16:29;99735.34;;;1.35;57.76
80542;BME280;69870;51.460;8.842;2024-01-10T11:19:33;99734.31;;;1.93;55.47
80542;BME280;69870;51.460;8.842;2024-01-10T11:22:16;99734.31;;;1.93;55.47
80542;BME280;69870;51.460;8.842;2024-01-10T11:24:47;99727.91;;;3.65;51.28
80542;BME280;69870;51.460;8.842;2024-01-10T11:27:14;99723.91;;;3.58;51.09
80542;BME280;69870;51.460;8.842;2024-01-10T11:29:42;99724.41;;;3.75;50.73
80542;BME280;69870;51.460;8.842;2024-01-10T11:32:14;99720.91;;;3.69;49.89
80542;BME280;69870;51.460;8.842;2024-01-10T11:34:49;99721.19;;;3.68;48.92
80542;BME280;69870;51.460;8.842;2024-01-10T11:37:16;99714.19;;;3.72;49.13
80542;BME280;69870;51.460;8.842;2024-01-10T11:39:44;99705.81;;;3.73;49.63
80542;BME280;69870;51.460;8.842;2024-01-10T11:42:11;99704.97;;;4.42;48.58
80542;BME280;69870;51.460;8.842;2024-01-10T11:44:47;69286.63;;;-142.42;100.00
80542;BME280;69870;51.460;8.842;2024-01-10T11:47:16;99694.88;;;5.72;45.15
80542;BME280;69870;51.460;8.842;2024-01-10T11:49:54;99691.75;;;5.60;45.82
80542;BME280;69870;51.460;8.842;2024-01-10T11:52:21;99686.50;;;5.50;45.26
80542;BME280;69870;51.460;8.842;2024-01-10T11:54:48;99696.34;;;4.79;46.39
80542;BME280;69870;51.460;8.842;2024-01-10T11:57:19;99696.81;;;4.08;48.29
80542;BME280;69870;51.460;8.842;2024-01-10T11:59:47;99699.69;;;3.58;48.70
80542;BME280;69870;51.460;8.842;2024-01-10T12:02:18;99700.56;;;3.43;48.93
80542;BME280;69870;51.460;8.842;2024-01-10T12:04:45;99685.03;;;3.89;47.79
80542;BME280;69870;51.460;8.842;2024-01-10T12:07:11;99686.88;;;3.35;47.90
80542;BME280;69870;51.460;8.842;2024-01-10T12:09:38;99690.97;;;2.67;48.88
80542;BME280;69870;51.460;8.842;2024-01-10T12:12:06;99681.53;;;3.15;48.66
80542;BME280;69870;51.460;8.842;2024-01-10T12:14:33;99678.88;;;3.89;46.00
80542;BME280;69870;51.460;8.842;2024-01-10T12:17:00;99670.09;;;4.22;45.88
80542;BME280;69870;51.460;8.842;2024-01-10T12:19:29;99676.78;;;4.63;44.58
80542;BME280;69870;51.460;8.842;2024-01-10T12:21:55;99670.41;;;5.40;43.53
80542;BME280;69870;51.460;8.842;2024-01-10T12:24:22;99669.75;;;5.96;42.72
80542;BME280;69870;51.460;8.842;2024-01-10T12:26:49;99666.66;;;6.07;42.40
80542;BME280;69870;51.460;8.842;2024-01-10T12:29:18;99671.84;;;6.22;42.28
80542;BME280;69870;51.460;8.842;2024-01-10T12:31:45;99664.16;;;5.92;42.35
80542;BME280;69870;51.460;8.842;2024-01-10T12:34:12;99663.28;;;5.02;43.47
80542;BME280;69870;51.460;8.842;2024-01-10T12:36:41;99669.25;;;3.72;44.79
80542;BME280;69870;51.460;8.842;2024-01-10T12:39:07;99670.00;;;2.54;47.25
80542;BME280;69870;51.460;8.842;2024-01-10T12:41:34;99675.16;;;1.58;48.97
80542;BME280;69870;51.460;8.842;2024-01-10T12:44:03;99672.13;;;0.93;50.57
80542;BME280;69870;51.460;8.842;2024-01-10T12:46:32;99669.00;;;0.37;50.42
80542;BME280;69870;51.460;8.842;2024-01-10T12:48:59;99674.78;;;0.03;51.49
80542;BME280;69870;51.460;8.842;2024-01-10T12:51:27;99677.88;;;-0.32;51.69
80542;BME280;69870;51.460;8.842;2024-01-10T12:53:57;99674.66;;;-0.56;52.20
80542;BME280;69870;51.460;8.842;2024-01-10T12:56:25;99679.19;;;-0.78;52.57